createdAt,value
2023-03-10T00:00:12.801Z,92244.47
2023-03-10T00:02:44.968Z,92244.41
2023-03-10T00:05:11.456Z,92247.31
2023-03-10T00:07:37.965Z,92244.16
2023-03-10T00:10:04.839Z,92246.97
2023-03-10T00:12:31.353Z,92248.63
2023-03-10T00:14:57.816Z,92256.69
2023-03-10T00:17:24.615Z,92233.09
2023-03-10T00:19:51.083Z,92225.91
2023-03-10T00:22:17.535Z,92219.66
2023-03-10T00:24:44.009Z,92223.28
2023-03-10T00:27:10.480Z,92215.91
2023-03-10T00:29:37.091Z,92206.19
2023-03-10T00:32:03.868Z,92201.53
2023-03-10T00:34:30.301Z,92197.16
2023-03-10T00:36:56.877Z,92202.13
2023-03-10T00:39:23.436Z,92198.06
2023-03-10T00:41:50.024Z,92206.22
2023-03-10T00:44:16.545Z,92197.09
2023-03-10T00:46:43.086Z,92193.19
2023-03-10T00:49:14.877Z,92181.16
2023-03-10T00:51:41.402Z,92176.38
2023-03-10T00:54:07.836Z,92178.09
2023-03-10T00:56:34.314Z,92177.28
2023-03-10T00:59:01.264Z,92178.94
2023-03-10T01:01:32.645Z,92180.34
2023-03-10T01:04:01.540Z,92178.66
2023-03-10T01:06:28.285Z,92169.69
2023-03-10T01:08:54.849Z,92173.75
2023-03-10T01:11:24.270Z,92173.75
2023-03-10T01:13:51.206Z,92167.25
2023-03-10T01:16:17.702Z,92170.56
2023-03-10T01:18:45.137Z,92165.69
2023-03-10T01:21:17.559Z,92159.44
2023-03-10T01:23:44.083Z,92152.25
2023-03-10T01:26:10.564Z,92150.38
2023-03-10T01:28:37.124Z,92148.59
2023-03-10T01:31:05.541Z,92142.72
2023-03-10T01:33:32.596Z,92135.59
2023-03-10T01:35:59.056Z,92129.34
2023-03-10T01:38:25.561Z,92140.63
2023-03-10T01:40:52.074Z,92125.25
2023-03-10T01:43:22.103Z,92125.34
2023-03-10T01:45:48.558Z,92122.13
2023-03-10T01:48:16.775Z,92123.53
2023-03-10T01:50:45.279Z,92122.47
2023-03-10T01:53:13.319Z,92115.94
2023-03-10T01:55:43.156Z,92110.59
2023-03-10T01:58:10.840Z,92105.59
2023-03-10T02:00:37.337Z,92096.59
2023-03-10T02:03:19.964Z,92091.91
2023-03-10T02:05:49.233Z,92091.88
2023-03-10T02:08:17.183Z,92078.28
2023-03-10T02:10:44.652Z,92084.78
2023-03-10T02:13:11.254Z,92079.25
2023-03-10T02:15:38.026Z,92065.38
2023-03-10T02:18:06.098Z,92055.41
2023-03-10T02:20:56.824Z,92037.78
2023-03-10T02:23:28.185Z,92034.44
2023-03-10T02:26:01.137Z,92039.25
2023-03-10T02:28:27.887Z,92050.94
2023-03-10T02:30:54.857Z,92053.28
2023-03-10T02:33:24.989Z,92034.38
2023-03-10T02:35:51.539Z,92025.97
2023-03-10T02:38:18.092Z,92030.16
2023-03-10T02:40:49.664Z,92028.38
2023-03-10T02:43:20.467Z,92011.44
2023-03-10T02:45:48.492Z,92012.19
2023-03-10T02:48:20.860Z,92013.53
2023-03-10T02:50:47.799Z,92010.28
2023-03-10T02:53:18.050Z,92009.09
2023-03-10T02:55:44.752Z,92004.34
2023-03-10T02:58:11.963Z,91998.72
2023-03-10T03:00:39.655Z,91994.72
2023-03-10T03:03:07.495Z,91986.84
2023-03-10T03:05:34.503Z,91990.06
2023-03-10T03:08:01.049Z,91990.06
2023-03-10T03:10:27.850Z,91967.19
2023-03-10T03:12:56.184Z,91963.81
2023-03-10T03:15:23.234Z,91956.50
2023-03-10T03:17:50.014Z,91943.53
2023-03-10T03:20:17.661Z,91935.81
2023-03-10T03:22:45.448Z,91926.19
2023-03-10T03:25:15.120Z,91918.84
2023-03-10T03:27:42.533Z,91911.53
2023-03-10T03:30:14.938Z,91917.28
2023-03-10T03:32:41.726Z,91916.53
2023-03-10T03:35:13.621Z,91916.16
2023-03-10T03:37:40.124Z,91914.84
2023-03-10T03:40:12.870Z,91905.25
2023-03-10T03:42:43.875Z,91896.16
2023-03-10T03:45:15.104Z,91892.00
2023-03-10T03:47:41.735Z,91882.22
2023-03-10T03:50:10.196Z,91885.53
2023-03-10T03:52:36.758Z,91872.31
2023-03-10T03:55:04.258Z,91863.53
2023-03-10T03:57:30.847Z,91864.16
2023-03-10T03:59:57.305Z,91870.47
2023-03-10T04:02:23.937Z,91865.59
2023-03-10T04:04:50.457Z,91869.50
2023-03-10T04:07:17.121Z,91851.66
2023-03-10T04:09:43.578Z,91856.31
2023-03-10T04:12:10.461Z,91838.28
2023-03-10T04:14:37.882Z,91826.84
2023-03-10T04:17:05.308Z,91830.88
2023-03-10T04:19:31.896Z,91824.16
2023-03-10T04:21:58.379Z,91824.81
2023-03-10T04:24:24.829Z,91826.59
2023-03-10T04:26:51.409Z,91821.72
2023-03-10T04:29:17.914Z,91827.31
2023-03-10T04:31:50.524Z,91838.69
2023-03-10T04:34:25.555Z,91825.34
2023-03-10T04:36:51.990Z,91825.53
2023-03-10T04:39:18.525Z,91829.50
2023-03-10T04:41:44.999Z,91810.91
2023-03-10T04:44:24.425Z,91815.56
2023-03-10T04:46:56.553Z,91800.84
2023-03-10T04:49:23.063Z,91800.63
2023-03-10T04:51:49.549Z,91793.50
2023-03-10T04:54:16.445Z,91787.09
2023-03-10T04:56:43.010Z,91780.56
2023-03-10T04:59:09.506Z,91761.94
2023-03-10T05:01:36.098Z,91756.69
2023-03-10T05:04:04.520Z,91764.69
2023-03-10T05:06:31.394Z,91755.84
2023-03-10T05:08:58.210Z,91743.63
2023-03-10T05:11:24.676Z,91739.22
2023-03-10T05:13:51.189Z,91738.38
2023-03-10T05:16:20.237Z,91712.41
2023-03-10T05:18:46.957Z,91704.34
2023-03-10T05:21:13.780Z,91717.09
2023-03-10T05:23:40.458Z,91731.63
2023-03-10T05:26:09.050Z,91738.06
2023-03-10T05:28:36.165Z,91729.38
2023-03-10T05:31:11.327Z,91736.25
2023-03-10T05:33:37.815Z,91739.38
2023-03-10T05:36:08.843Z,91728.81
2023-03-10T05:38:36.512Z,91710.75
2023-03-10T05:41:06.818Z,91713.22
2023-03-10T05:43:33.450Z,91707.25
2023-03-10T05:46:00.359Z,91702.28
2023-03-10T05:48:27.076Z,91697.06
2023-03-10T05:51:05.800Z,91697.84
2023-03-10T05:53:34.301Z,91704.97
2023-03-10T05:56:00.869Z,91701.41
2023-03-10T05:58:27.759Z,91711.69
2023-03-10T06:00:54.488Z,91717.59
2023-03-10T06:03:23.313Z,91704.31
2023-03-10T06:05:50.321Z,91700.25
2023-03-10T06:08:19.931Z,91702.41
2023-03-10T06:10:46.448Z,91697.38
2023-03-10T06:13:12.978Z,91694.09
2023-03-10T06:15:39.504Z,91690.31
2023-03-10T06:18:06.146Z,91684.69
2023-03-10T06:20:32.676Z,91679.53
2023-03-10T06:22:59.180Z,91676.13
2023-03-10T06:25:25.650Z,91676.19
2023-03-10T06:27:52.256Z,91685.72
2023-03-10T06:30:18.946Z,91685.88
2023-03-10T06:32:45.739Z,91688.69
2023-03-10T06:35:13.963Z,91679.22
2023-03-10T06:37:41.256Z,91661.69
2023-03-10T06:40:10.084Z,91658.31
2023-03-10T06:42:36.955Z,91660.38
2023-03-10T06:45:04.091Z,91675.56
2023-03-10T06:47:30.668Z,91661.41
2023-03-10T06:49:57.440Z,91661.66
2023-03-10T06:52:24.158Z,91657.53
2023-03-10T06:54:50.763Z,91653.91
2023-03-10T06:57:19.858Z,91646.44
2023-03-10T06:59:47.306Z,91638.06
2023-03-10T07:02:13.817Z,91634.56
2023-03-10T07:04:40.554Z,91630.22
2023-03-10T07:07:07.286Z,91635.66
2023-03-10T07:09:33.896Z,91628.88
2023-03-10T07:12:00.483Z,91629.66
2023-03-10T07:14:27.032Z,91627.63
2023-03-10T07:16:53.604Z,91629.59
2023-03-10T07:19:20.920Z,91615.13
2023-03-10T07:21:47.573Z,91608.47
2023-03-10T07:24:14.675Z,91617.47
2023-03-10T07:26:41.345Z,91616.38
2023-03-10T07:29:07.921Z,91623.81
2023-03-10T07:31:34.830Z,91612.56
2023-03-10T07:34:02.105Z,91619.75
2023-03-10T07:36:29.230Z,91616.97
2023-03-10T07:38:56.598Z,91604.78
2023-03-10T07:41:23.227Z,91607.53
2023-03-10T07:43:53.881Z,91598.09
2023-03-10T07:46:21.191Z,91588.06
2023-03-10T07:48:48.198Z,91592.03
2023-03-10T07:51:15.635Z,91588.00
2023-03-10T07:53:42.417Z,91583.44
2023-03-10T07:56:10.944Z,91584.53
2023-03-10T07:58:37.942Z,91578.28
2023-03-10T08:01:05.396Z,91572.09
2023-03-10T08:03:33.970Z,91566.41
2023-03-10T08:06:01.566Z,91568.50
2023-03-10T08:08:28.506Z,91552.25
2023-03-10T08:11:06.790Z,91550.88
2023-03-10T08:13:33.687Z,91548.16
2023-03-10T08:16:01.564Z,91546.97
2023-03-10T08:18:29.639Z,91550.69
2023-03-10T08:20:57.066Z,91550.41
2023-03-10T08:23:24.508Z,91552.59
2023-03-10T08:25:51.313Z,91566.38
2023-03-10T08:28:17.880Z,91551.81
2023-03-10T08:31:02.633Z,91542.59
2023-03-10T08:33:30.717Z,91543.13
2023-03-10T08:36:05.401Z,91541.56
2023-03-10T08:38:32.496Z,91528.16
2023-03-10T08:41:16.072Z,91526.66
2023-03-10T08:43:43.323Z,91531.25
2023-03-10T08:46:12.902Z,91541.75
2023-03-10T08:48:42.681Z,91538.41
2023-03-10T08:51:10.247Z,91544.78
2023-03-10T08:53:37.916Z,91536.38
2023-03-10T08:56:05.344Z,91525.75
2023-03-10T08:58:32.619Z,91532.56
2023-03-10T09:00:59.598Z,91528.66
2023-03-10T09:03:26.904Z,91506.25
2023-03-10T09:05:55.491Z,91527.91
2023-03-10T09:08:22.148Z,91504.13
2023-03-10T09:10:48.711Z,91514.19
2023-03-10T09:13:16.255Z,91488.22
2023-03-10T09:15:43.037Z,91514.72
2023-03-10T09:18:11.286Z,91500.84
2023-03-10T09:20:39.232Z,91499.69
2023-03-10T09:23:06.615Z,91493.88
2023-03-10T09:25:33.193Z,91494.38
2023-03-10T09:28:00.108Z,91476.59
2023-03-10T09:30:27.003Z,91481.66
2023-03-10T09:32:54.223Z,91480.00
2023-03-10T09:35:20.995Z,91470.69
2023-03-10T09:37:47.628Z,91465.94
2023-03-10T09:40:19.341Z,91469.28
2023-03-10T09:42:47.756Z,91476.59
2023-03-10T09:45:31.462Z,91481.13
2023-03-10T09:48:19.454Z,91480.84
2023-03-10T09:50:48.064Z,91473.94
2023-03-10T09:53:44.460Z,91484.88
2023-03-10T09:56:20.394Z,91480.81
2023-03-10T09:58:50.272Z,91472.38
2023-03-10T10:01:19.884Z,91478.09
2023-03-10T10:03:52.953Z,91472.78
2023-03-10T10:06:29.074Z,91463.94
2023-03-10T10:09:05.048Z,91469.22
2023-03-10T10:11:33.213Z,91458.50
2023-03-10T10:14:30.605Z,91430.03
2023-03-10T10:17:07.775Z,91428.25
2023-03-10T10:19:36.950Z,91418.31
2023-03-10T10:22:11.145Z,91424.31
2023-03-10T10:24:38.572Z,91418.88
2023-03-10T10:27:05.054Z,91417.66
2023-03-10T10:29:36.542Z,91409.09
2023-03-10T10:32:04.921Z,91419.69
2023-03-10T10:34:32.201Z,91415.56
2023-03-10T10:36:59.242Z,91400.56
2023-03-10T10:39:32.334Z,91406.25
2023-03-10T10:42:24.190Z,91414.31
2023-03-10T10:45:16.410Z,91396.31
2023-03-10T10:47:51.494Z,91412.00
2023-03-10T10:50:27.759Z,91406.16
2023-03-10T10:53:12.961Z,91402.22
2023-03-10T10:55:40.604Z,91408.63
2023-03-10T10:58:23.715Z,91404.25
2023-03-10T11:00:58.964Z,91400.50
2023-03-10T11:03:39.608Z,91396.97
2023-03-10T11:06:21.316Z,91397.28
2023-03-10T11:08:51.345Z,91395.84
2023-03-10T11:11:23.396Z,91398.53
2023-03-10T11:14:17.785Z,91397.19
2023-03-10T11:17:16.340Z,91395.63
2023-03-10T11:19:51.600Z,91398.59
2023-03-10T11:22:23.725Z,91388.13
2023-03-10T11:25:00.297Z,91398.78
2023-03-10T11:28:13.274Z,91393.09
2023-03-10T11:30:47.018Z,91394.28
2023-03-10T11:33:20.883Z,91392.84
2023-03-10T11:35:52.162Z,91388.66
2023-03-10T11:38:35.082Z,91377.03
2023-03-10T11:41:08.424Z,91366.94
2023-03-10T11:43:39.227Z,91374.59
2023-03-10T11:46:28.789Z,91370.97
2023-03-10T11:48:57.708Z,91370.19
2023-03-10T11:51:30.198Z,91356.63
2023-03-10T11:54:03.871Z,91355.97
2023-03-10T11:56:30.768Z,91345.66
2023-03-10T11:59:07.006Z,91349.91
2023-03-10T12:01:38.866Z,91355.88
2023-03-10T12:04:12.691Z,91353.56
2023-03-10T12:06:46.220Z,91347.19
2023-03-10T12:09:27.912Z,91346.00
2023-03-10T12:11:54.846Z,91345.75
2023-03-10T12:14:21.607Z,91355.94
2023-03-10T12:16:49.091Z,91337.66
2023-03-10T12:19:16.253Z,91335.00
2023-03-10T12:21:42.713Z,91334.22
2023-03-10T12:24:58.169Z,91329.91
2023-03-10T12:27:24.903Z,91330.56
2023-03-10T12:29:51.367Z,91337.88
2023-03-10T12:32:41.664Z,91330.63
2023-03-10T12:35:28.878Z,91339.63
2023-03-10T12:38:42.694Z,91331.22
2023-03-10T12:41:10.028Z,91327.50
2023-03-10T12:43:51.399Z,91327.34
2023-03-10T12:46:39.768Z,91328.28
2023-03-10T12:49:25.164Z,91325.56
2023-03-10T12:52:00.154Z,91327.03
2023-03-10T12:55:04.462Z,91327.59
2023-03-10T12:57:36.836Z,91322.50
2023-03-10T13:00:24.983Z,91326.91
2023-03-10T13:02:55.937Z,91328.13
2023-03-10T13:05:28.087Z,91320.28
2023-03-10T13:07:57.910Z,91331.78
2023-03-10T13:10:26.411Z,91325.22
2023-03-10T13:13:03.683Z,91325.06
2023-03-10T13:15:32.477Z,91328.06
2023-03-10T13:18:20.707Z,91320.28
2023-03-10T13:20:48.342Z,91328.75
2023-03-10T13:23:29.846Z,91331.41
2023-03-10T13:26:01.591Z,91332.75
2023-03-10T13:28:32.057Z,91338.25
2023-03-10T13:31:19.250Z,91336.25
2023-03-10T13:33:53.372Z,91338.59
2023-03-10T13:36:40.032Z,91337.41
2023-03-10T13:39:17.645Z,91337.25
2023-03-10T13:41:52.245Z,91336.06
2023-03-10T13:44:26.890Z,91334.09
2023-03-10T13:47:00.484Z,91342.34
2023-03-10T13:49:32.596Z,91335.88
2023-03-10T13:52:01.297Z,91329.94
2023-03-10T13:54:28.911Z,91335.84
2023-03-10T13:57:03.405Z,91343.88
2023-03-10T13:59:32.564Z,91335.78
2023-03-10T14:02:00.567Z,91332.84
2023-03-10T14:04:47.093Z,91338.63
2023-03-10T14:07:23.822Z,91340.47
2023-03-10T14:10:18.505Z,91323.91
2023-03-10T14:12:49.837Z,91335.44
2023-03-10T14:15:19.430Z,91322.09
2023-03-10T14:17:46.568Z,91324.47
2023-03-10T14:20:31.411Z,91317.63
2023-03-10T14:22:58.143Z,91328.09
2023-03-10T14:25:25.372Z,91331.09
2023-03-10T14:30:41.982Z,91326.81
2023-03-10T14:33:13.407Z,91322.31
2023-03-10T14:35:40.396Z,91315.69
2023-03-10T14:38:07.118Z,91316.16
2023-03-10T14:40:39.235Z,91319.22
2023-03-10T14:43:05.988Z,91317.56
2023-03-10T14:45:36.681Z,91317.44
2023-03-10T14:48:15.105Z,91314.28
2023-03-10T14:50:41.812Z,91313.59
2023-03-10T14:53:13.333Z,91305.31
2023-03-10T14:55:40.872Z,91311.59
2023-03-10T14:58:08.205Z,91308.41
2023-03-10T15:00:35.515Z,91298.00
2023-03-10T15:03:01.994Z,91298.28
2023-03-10T15:05:45.014Z,91289.47
2023-03-10T15:08:14.117Z,91284.09
2023-03-10T15:10:42.744Z,91284.91
2023-03-10T15:13:13.456Z,91301.91
2023-03-10T15:15:42.456Z,91280.19
2023-03-10T15:18:13.465Z,91287.03
2023-03-10T15:20:40.153Z,91282.69
2023-03-10T15:23:07.038Z,91274.44
2023-03-10T15:25:33.838Z,91290.16
2023-03-10T15:28:00.404Z,91289.47
2023-03-10T15:30:29.910Z,91290.38
2023-03-10T15:32:56.828Z,91288.81
2023-03-10T15:35:23.831Z,91290.94
2023-03-10T15:37:51.358Z,91291.13
2023-03-10T15:40:29.218Z,91298.06
2023-03-10T15:42:57.504Z,91299.00
2023-03-10T15:45:25.609Z,91292.25
2023-03-10T15:47:52.352Z,91292.22
2023-03-10T15:50:19.780Z,91286.81
2023-03-10T15:52:51.677Z,91284.44
2023-03-10T15:55:18.396Z,91287.88
2023-03-10T15:57:47.978Z,91282.78
2023-03-10T16:00:18.556Z,91279.94
2023-03-10T16:02:45.852Z,91278.00
2023-03-10T16:05:12.658Z,91271.38
2023-03-10T16:07:39.479Z,91280.00
2023-03-10T16:10:07.129Z,91264.22
2023-03-10T16:12:33.865Z,91271.38
2023-03-10T16:15:00.488Z,91273.50
2023-03-10T16:17:29.284Z,91274.22
2023-03-10T16:19:56.310Z,91267.16
2023-03-10T16:22:23.280Z,91263.38
2023-03-10T16:24:49.882Z,91268.13
2023-03-10T16:27:16.451Z,91270.63
2023-03-10T16:29:43.123Z,91274.44
2023-03-10T16:32:10.019Z,91281.88
2023-03-10T16:34:36.515Z,91281.75
2023-03-10T16:37:03.011Z,91273.69
2023-03-10T16:39:32.888Z,91277.06
2023-03-10T16:42:00.006Z,91273.69
2023-03-10T16:44:26.544Z,91265.84
2023-03-10T16:46:53.225Z,91260.75
2023-03-10T16:49:19.872Z,91267.94
2023-03-10T16:51:47.744Z,91266.47
2023-03-10T16:54:20.581Z,91269.97
2023-03-10T16:56:49.203Z,91265.28
2023-03-10T16:59:18.964Z,91274.50
2023-03-10T17:01:45.881Z,91261.03
2023-03-10T17:04:12.992Z,91263.03
2023-03-10T17:06:40.072Z,91252.84
2023-03-10T17:09:08.902Z,91254.28
2023-03-10T17:11:45.171Z,91251.03
2023-03-10T17:14:15.013Z,91250.63
2023-03-10T17:16:43.460Z,91243.31
2023-03-10T17:19:21.141Z,91243.19
2023-03-10T17:21:49.439Z,91237.19
2023-03-10T17:24:19.427Z,91230.13
2023-03-10T17:26:46.898Z,91228.16
2023-03-10T17:29:13.852Z,91233.28
2023-03-10T17:31:40.680Z,91231.06
2023-03-10T17:34:11.490Z,91228.84
2023-03-10T17:36:38.150Z,91226.50
2023-03-10T17:39:05.789Z,91225.97
2023-03-10T17:41:34.049Z,91217.22
2023-03-10T17:44:00.842Z,91221.03
2023-03-10T17:46:29.854Z,91227.94
2023-03-10T17:48:57.686Z,91229.53
2023-03-10T17:51:29.833Z,91230.59
2023-03-10T17:53:58.368Z,91226.31
2023-03-10T17:56:25.840Z,91219.66
2023-03-10T17:58:53.332Z,91214.31
2023-03-10T18:01:27.156Z,91211.06
2023-03-10T18:03:56.077Z,91211.44
2023-03-10T18:06:24.925Z,91209.09
2023-03-10T18:08:56.064Z,91206.72
2023-03-10T18:11:23.792Z,91207.38
2023-03-10T18:13:50.386Z,91206.50
2023-03-10T18:16:28.789Z,91206.63
2023-03-10T18:18:56.850Z,91202.44
2023-03-10T18:21:23.895Z,91198.66
2023-03-10T18:23:51.394Z,91199.31
2023-03-10T18:26:20.682Z,91199.03
2023-03-10T18:28:47.334Z,91195.50
2023-03-10T18:31:25.862Z,91182.97
2023-03-10T18:33:52.866Z,91182.56
2023-03-10T18:36:20.902Z,91183.50
2023-03-10T18:38:48.332Z,91172.66
2023-03-10T18:41:18.772Z,91170.44
2023-03-10T18:43:45.721Z,91163.59
2023-03-10T18:46:12.716Z,91164.91
2023-03-10T18:48:39.348Z,91166.09
2023-03-10T18:51:06.260Z,91166.16
2023-03-10T18:53:33.165Z,91154.00
2023-03-10T18:56:00.111Z,91144.19
2023-03-10T18:58:27.258Z,91136.50
2023-03-10T19:00:54.030Z,91138.81
2023-03-10T19:03:20.739Z,91135.97
2023-03-10T19:05:53.001Z,91138.06
2023-03-10T19:08:20.106Z,91129.69
2023-03-10T19:10:55.011Z,91117.19
2023-03-10T19:13:23.213Z,91108.31
2023-03-10T19:15:49.932Z,91102.03
2023-03-10T19:18:16.840Z,91100.59
2023-03-10T19:20:43.865Z,91102.22
2023-03-10T19:23:10.697Z,91104.38
2023-03-10T19:25:37.354Z,91101.91
2023-03-10T19:28:04.681Z,91099.16
2023-03-10T19:30:34.019Z,91093.16
2023-03-10T19:33:00.713Z,91094.47
2023-03-10T19:35:27.462Z,91086.31
2023-03-10T19:37:54.492Z,91088.38
2023-03-10T19:40:21.592Z,91083.25
2023-03-10T19:42:48.637Z,91086.41
2023-03-10T19:45:17.571Z,91073.25
2023-03-10T19:47:44.864Z,91080.03
2023-03-10T19:50:15.191Z,91074.47
2023-03-10T19:52:46.323Z,91072.25
2023-03-10T19:55:19.416Z,91077.22
2023-03-10T19:57:48.680Z,91073.84
2023-03-10T20:00:19.101Z,91065.09
2023-03-10T20:02:46.083Z,91037.97
2023-03-10T20:05:19.731Z,91032.13
2023-03-10T20:07:47.576Z,91019.50
2023-03-10T20:10:17.061Z,91027.03
2023-03-10T20:12:44.555Z,91028.22
2023-03-10T20:15:11.312Z,91025.88
2023-03-10T20:17:38.043Z,91036.31
2023-03-10T20:20:10.496Z,91023.28
2023-03-10T20:22:38.763Z,91035.00
2023-03-10T20:25:06.830Z,91033.44
2023-03-10T20:27:33.732Z,91031.28
2023-03-10T20:30:00.331Z,91011.28
2023-03-10T20:32:27.520Z,91018.94
2023-03-10T20:34:54.353Z,91004.66
2023-03-10T20:37:21.094Z,91001.47
2023-03-10T20:39:47.793Z,90998.72
2023-03-10T20:42:15.285Z,91000.63
2023-03-10T20:44:45.636Z,90997.00
2023-03-10T20:47:12.453Z,90991.13
2023-03-10T20:49:39.024Z,90978.41
2023-03-10T20:52:05.693Z,90979.06
2023-03-10T20:54:32.303Z,90974.25
2023-03-10T20:56:59.152Z,90973.44
2023-03-10T20:59:25.765Z,90973.31
2023-03-10T21:01:52.407Z,90975.78
2023-03-10T21:04:20.107Z,90964.84
2023-03-10T21:06:47.525Z,90965.13
2023-03-10T21:09:14.900Z,90965.91
2023-03-10T21:11:42.151Z,90964.47
2023-03-10T21:14:08.701Z,90948.84
2023-03-10T21:16:42.810Z,90952.31
2023-03-10T21:19:10.057Z,90956.47
2023-03-10T21:21:36.573Z,90950.75
2023-03-10T21:24:04.420Z,90945.44
2023-03-10T21:26:31.468Z,90936.19
2023-03-10T21:29:00.024Z,90939.06
2023-03-10T21:31:26.995Z,90931.25
2023-03-10T21:33:53.821Z,90927.88
2023-03-10T21:36:22.851Z,90923.59
2023-03-10T21:38:50.175Z,90920.63
2023-03-10T21:41:19.014Z,90920.72
2023-03-10T21:43:45.580Z,90911.25
2023-03-10T21:46:12.363Z,90911.91
2023-03-10T21:48:38.887Z,90913.06
2023-03-10T21:51:05.712Z,90911.41
2023-03-10T21:53:32.303Z,90913.09
2023-03-10T21:56:00.572Z,90907.63
2023-03-10T21:58:27.393Z,90902.28
2023-03-10T22:00:56.166Z,90897.59
2023-03-10T22:03:22.912Z,90889.91
2023-03-10T22:05:50.398Z,90880.53
2023-03-10T22:08:16.841Z,90879.00
2023-03-10T22:10:43.533Z,90871.19
2023-03-10T22:13:10.051Z,90862.59
2023-03-10T22:15:36.768Z,90867.78
2023-03-10T22:18:03.688Z,90866.78
2023-03-10T22:20:30.295Z,90857.38
2023-03-10T22:22:57.248Z,90860.25
2023-03-10T22:25:24.544Z,90860.50
2023-03-10T22:27:53.712Z,90854.25
2023-03-10T22:30:21.870Z,90862.22
2023-03-10T22:32:48.668Z,90854.53
2023-03-10T22:35:16.292Z,90852.81
2023-03-10T22:37:43.197Z,90846.31
2023-03-10T22:40:16.523Z,90837.44
2023-03-10T22:42:43.556Z,90842.16
2023-03-10T22:45:23.570Z,90846.69
2023-03-10T22:47:52.427Z,90842.41
2023-03-10T22:50:22.313Z,90829.13
2023-03-10T22:52:48.845Z,90838.09
2023-03-10T22:55:17.720Z,90833.81
2023-03-10T22:57:44.457Z,90836.00
2023-03-10T23:00:18.763Z,90827.28
2023-03-10T23:02:49.214Z,90837.56
2023-03-10T23:05:17.061Z,90842.78
2023-03-10T23:07:44.248Z,90837.72
2023-03-10T23:10:22.485Z,90831.34
2023-03-10T23:12:49.702Z,90834.22
2023-03-10T23:15:25.146Z,90834.19
2023-03-10T23:17:52.219Z,90835.63
2023-03-10T23:20:18.826Z,90829.88
2023-03-10T23:22:46.350Z,90830.53
2023-03-10T23:25:20.428Z,90835.25
2023-03-10T23:27:46.936Z,90830.03
2023-03-10T23:30:15.086Z,90825.59
2023-03-10T23:32:45.960Z,90822.06
2023-03-10T23:35:15.789Z,90816.22
2023-03-10T23:37:42.497Z,90818.06
2023-03-10T23:40:11.520Z,90823.13
2023-03-10T23:42:38.393Z,90824.16
2023-03-10T23:45:07.861Z,90817.78
2023-03-10T23:47:35.499Z,90817.03
2023-03-10T23:50:02.337Z,90815.97
2023-03-10T23:52:28.949Z,90814.66
2023-03-10T23:54:55.498Z,90810.09
2023-03-10T23:57:21.958Z,90810.66
2023-03-10T23:59:48.566Z,90801.16
